createdAt,value
2023-03-10T00:00:29.760Z,71.40
2023-03-10T00:03:15.819Z,71.20
2023-03-10T00:06:02.884Z,71.10
2023-03-10T00:08:49.935Z,71.30
2023-03-10T00:11:36.117Z,71.10
2023-03-10T00:14:22.064Z,71.00
2023-03-10T00:17:08.162Z,71.00
2023-03-10T00:19:54.622Z,70.70
2023-03-10T00:22:41.940Z,70.40
2023-03-10T00:25:28.106Z,70.70
2023-03-10T00:28:14.079Z,70.50
2023-03-10T00:31:05.932Z,70.20
2023-03-10T00:33:52.597Z,70.20
2023-03-10T00:36:40.438Z,70.40
2023-03-10T00:39:28.643Z,70.40
2023-03-10T00:42:14.647Z,70.40
2023-03-10T00:45:00.607Z,70.40
2023-03-10T00:47:46.795Z,70.40
2023-03-10T00:50:32.880Z,70.80
2023-03-10T00:53:19.383Z,70.90
2023-03-10T00:56:29.459Z,71.00
2023-03-10T00:59:15.245Z,71.00
2023-03-10T01:02:01.256Z,71.10
2023-03-10T01:04:49.931Z,71.20
2023-03-10T01:07:36.880Z,71.50
2023-03-10T01:10:22.816Z,71.10
2023-03-10T01:13:14.029Z,71.70
2023-03-10T01:16:00.178Z,71.60
2023-03-10T01:18:46.618Z,71.60
2023-03-10T01:21:35.490Z,71.40
2023-03-10T01:24:21.404Z,71.50
2023-03-10T01:27:07.328Z,71.40
2023-03-10T01:29:53.435Z,71.30
2023-03-10T01:32:40.326Z,71.50
2023-03-10T01:35:26.451Z,71.60
2023-03-10T01:38:12.794Z,71.50
2023-03-10T01:40:58.516Z,71.80
2023-03-10T01:43:46.927Z,71.80
2023-03-10T01:46:43.430Z,71.50
2023-03-10T01:49:39.973Z,71.60
2023-03-10T01:52:29.324Z,71.60
2023-03-10T01:55:19.069Z,71.90
2023-03-10T01:58:06.868Z,71.60
2023-03-10T02:00:54.503Z,71.50
2023-03-10T02:03:53.454Z,71.40
2023-03-10T02:06:41.846Z,71.40
2023-03-10T02:09:29.143Z,71.30
2023-03-10T02:12:15.734Z,70.90
2023-03-10T02:15:02.718Z,71.00
2023-03-10T02:17:52.129Z,71.20
2023-03-10T02:20:59.984Z,70.80
2023-03-10T02:24:10.998Z,70.60
2023-03-10T02:27:24.869Z,70.00
2023-03-10T02:30:28.761Z,70.10
2023-03-10T02:33:22.812Z,69.80
2023-03-10T02:36:35.669Z,69.00
2023-03-10T02:39:23.526Z,69.00
2023-03-10T02:42:11.335Z,68.80
2023-03-10T02:44:57.547Z,68.50
2023-03-10T02:47:43.732Z,68.20
2023-03-10T02:50:36.760Z,68.20
2023-03-10T02:53:25.366Z,68.70
2023-03-10T02:56:11.896Z,68.80
2023-03-10T02:59:01.383Z,69.10
2023-03-10T03:01:47.731Z,69.40
2023-03-10T03:04:36.500Z,69.80
2023-03-10T03:07:22.670Z,70.20
2023-03-10T03:10:10.416Z,70.90
2023-03-10T03:12:56.941Z,70.40
2023-03-10T03:15:44.418Z,70.30
2023-03-10T03:18:31.174Z,70.50
2023-03-10T03:21:17.738Z,70.40
2023-03-10T03:24:05.300Z,70.50
2023-03-10T03:26:51.548Z,70.60
2023-03-10T03:29:42.780Z,70.80
2023-03-10T03:32:29.936Z,71.10
2023-03-10T03:35:24.364Z,70.50
2023-03-10T03:38:10.735Z,71.20
2023-03-10T03:40:57.176Z,71.70
2023-03-10T03:43:43.764Z,72.60
2023-03-10T03:46:29.749Z,73.20
2023-03-10T03:49:18.163Z,73.60
2023-03-10T03:52:06.923Z,73.20
2023-03-10T03:54:53.299Z,73.00
2023-03-10T03:57:39.812Z,73.50
2023-03-10T04:00:26.464Z,74.10
2023-03-10T04:03:21.770Z,74.70
2023-03-10T04:06:08.360Z,74.50
2023-03-10T04:08:54.844Z,73.70
2023-03-10T04:11:43.245Z,74.10
2023-03-10T04:14:29.703Z,74.10
2023-03-10T04:17:16.881Z,74.60
2023-03-10T04:20:07.870Z,75.00
2023-03-10T04:22:57.994Z,75.10
2023-03-10T04:25:49.310Z,75.10
2023-03-10T04:28:37.803Z,75.20
2023-03-10T04:31:25.708Z,75.10
2023-03-10T04:34:11.920Z,74.80
2023-03-10T04:36:58.378Z,74.80
2023-03-10T04:39:44.845Z,74.70
2023-03-10T04:42:30.976Z,75.30
2023-03-10T04:45:17.488Z,75.10
2023-03-10T04:48:04.507Z,75.00
2023-03-10T04:50:56.119Z,74.60
2023-03-10T04:53:43.441Z,74.80
2023-03-10T04:56:29.925Z,75.10
2023-03-10T04:59:17.835Z,74.80
2023-03-10T05:02:04.874Z,74.40
2023-03-10T05:04:51.102Z,74.30
2023-03-10T05:07:37.536Z,73.90
2023-03-10T05:10:24.094Z,73.40
2023-03-10T05:13:12.861Z,73.60
2023-03-10T05:16:00.438Z,73.50
2023-03-10T05:18:47.854Z,72.50
2023-03-10T05:21:37.143Z,72.30
2023-03-10T05:24:24.009Z,72.90
2023-03-10T05:27:10.588Z,72.70
2023-03-10T05:30:00.902Z,73.20
2023-03-10T05:32:47.108Z,73.60
2023-03-10T05:35:33.717Z,74.20
2023-03-10T05:38:20.444Z,74.10
2023-03-10T05:41:08.922Z,75.20
2023-03-10T05:43:55.794Z,76.20
2023-03-10T05:46:42.547Z,76.90
2023-03-10T05:49:28.896Z,77.20
2023-03-10T05:52:15.199Z,77.50
2023-03-10T05:55:02.697Z,77.70
2023-03-10T05:57:49.135Z,77.70
2023-03-10T06:00:36.150Z,78.30
2023-03-10T06:03:24.992Z,78.80
2023-03-10T06:06:11.743Z,79.20
2023-03-10T06:08:58.077Z,79.30
2023-03-10T06:11:44.093Z,79.40
2023-03-10T06:14:30.125Z,79.90
2023-03-10T06:17:18.107Z,80.70
2023-03-10T06:20:06.218Z,80.90
2023-03-10T06:22:53.503Z,81.00
2023-03-10T06:25:40.075Z,81.10
2023-03-10T06:28:27.700Z,81.40
2023-03-10T06:31:19.957Z,81.90
2023-03-10T06:34:06.254Z,81.60
2023-03-10T06:36:52.260Z,81.70
2023-03-10T06:39:39.512Z,81.60
2023-03-10T06:42:25.797Z,81.50
2023-03-10T06:45:15.771Z,82.20
2023-03-10T06:48:01.917Z,81.80
2023-03-10T06:50:56.143Z,81.40
2023-03-10T06:53:42.182Z,80.80
2023-03-10T06:56:28.527Z,81.60
2023-03-10T06:59:14.667Z,81.70
2023-03-10T07:02:00.945Z,81.10
2023-03-10T07:04:47.528Z,81.00
2023-03-10T07:07:34.012Z,81.30
2023-03-10T07:10:20.381Z,80.90
2023-03-10T07:13:06.721Z,80.40
2023-03-10T07:15:52.552Z,80.60
2023-03-10T07:18:38.560Z,80.60
2023-03-10T07:21:24.975Z,79.90
2023-03-10T07:24:10.856Z,79.50
2023-03-10T07:27:00.392Z,79.50
2023-03-10T07:29:46.810Z,79.10
2023-03-10T07:32:33.004Z,79.00
2023-03-10T07:35:19.201Z,78.50
2023-03-10T07:38:05.428Z,78.60
2023-03-10T07:40:51.276Z,78.10
2023-03-10T07:43:37.862Z,78.30
2023-03-10T07:46:24.220Z,78.10
2023-03-10T07:49:10.835Z,77.80
2023-03-10T07:51:56.795Z,77.90
2023-03-10T07:54:46.421Z,77.60
2023-03-10T07:57:32.653Z,77.50
2023-03-10T08:00:18.941Z,76.70
2023-03-10T08:03:05.216Z,78.10
2023-03-10T08:05:51.301Z,76.80
2023-03-10T08:08:38.085Z,75.80
2023-03-10T08:11:24.380Z,76.90
2023-03-10T08:14:10.374Z,75.90
2023-03-10T08:16:57.125Z,75.40
2023-03-10T08:19:43.635Z,75.00
2023-03-10T08:22:29.651Z,74.80
2023-03-10T08:25:16.071Z,74.20
2023-03-10T08:28:02.010Z,74.30
2023-03-10T08:31:02.937Z,74.20
2023-03-10T08:33:50.143Z,72.90
2023-03-10T08:36:36.464Z,73.10
2023-03-10T08:39:22.559Z,73.30
2023-03-10T08:42:12.004Z,73.10
2023-03-10T08:44:58.129Z,72.90
2023-03-10T08:47:44.224Z,72.60
2023-03-10T08:50:30.424Z,73.00
2023-03-10T08:53:16.466Z,73.50
2023-03-10T08:56:02.790Z,71.80
2023-03-10T08:58:49.022Z,72.60
2023-03-10T09:01:37.613Z,70.70
2023-03-10T09:04:23.866Z,70.70
2023-03-10T09:07:10.187Z,69.10
2023-03-10T09:09:56.476Z,69.30
2023-03-10T09:12:42.184Z,67.70
2023-03-10T09:15:28.216Z,67.20
2023-03-10T09:18:15.973Z,66.80
2023-03-10T09:21:02.321Z,65.90
2023-03-10T09:23:50.210Z,65.10
2023-03-10T09:26:36.650Z,63.70
2023-03-10T09:29:36.535Z,64.00
2023-03-10T09:32:28.057Z,63.30
2023-03-10T09:35:14.054Z,62.50
2023-03-10T09:38:00.138Z,63.30
2023-03-10T09:40:52.421Z,64.80
2023-03-10T09:43:42.510Z,65.70
2023-03-10T09:46:54.648Z,65.80
2023-03-10T09:50:08.368Z,66.50
2023-03-10T09:53:13.502Z,66.60
2023-03-10T09:56:00.295Z,66.40
2023-03-10T09:58:49.995Z,66.70
2023-03-10T10:01:37.821Z,66.60
2023-03-10T10:04:28.122Z,66.80
2023-03-10T10:07:17.473Z,68.00
2023-03-10T10:10:09.267Z,69.40
2023-03-10T10:13:01.192Z,71.40
2023-03-10T10:16:07.350Z,72.00
2023-03-10T10:19:17.431Z,73.70
2023-03-10T10:22:27.439Z,74.40
2023-03-10T10:25:22.364Z,74.20
2023-03-10T10:28:20.175Z,74.60
2023-03-10T10:31:13.722Z,75.70
2023-03-10T10:34:05.591Z,75.70
2023-03-10T10:36:56.333Z,76.10
2023-03-10T10:39:43.493Z,77.30
2023-03-10T10:42:31.813Z,78.40
2023-03-10T10:45:32.044Z,79.80
2023-03-10T10:48:37.742Z,82.40
2023-03-10T10:51:29.582Z,83.00
2023-03-10T10:54:28.201Z,83.60
2023-03-10T10:57:23.014Z,84.80
2023-03-10T11:00:32.256Z,84.80
2023-03-10T11:03:24.281Z,83.60
2023-03-10T11:06:32.298Z,83.70
2023-03-10T11:09:21.478Z,82.80
2023-03-10T11:12:22.047Z,81.20
2023-03-10T11:15:13.328Z,80.00
2023-03-10T11:18:16.869Z,80.00
2023-03-10T11:21:07.060Z,79.30
2023-03-10T11:24:13.456Z,78.70
2023-03-10T11:27:08.625Z,78.50
2023-03-10T11:30:00.686Z,76.90
2023-03-10T11:33:39.732Z,76.50
2023-03-10T11:36:53.374Z,76.50
2023-03-10T11:40:15.006Z,75.10
2023-03-10T11:43:13.690Z,70.10
2023-03-10T11:46:19.470Z,67.40
2023-03-10T11:49:10.678Z,63.70
2023-03-10T11:52:00.555Z,60.00
2023-03-10T11:55:07.358Z,59.00
2023-03-10T11:57:57.840Z,60.20
2023-03-10T12:00:45.990Z,60.70
2023-03-10T12:03:40.694Z,60.00
2023-03-10T12:06:44.684Z,59.10
2023-03-10T12:09:46.384Z,57.50
2023-03-10T12:12:36.651Z,56.30
2023-03-10T12:15:38.888Z,54.60
2023-03-10T12:18:27.044Z,54.10
2023-03-10T12:21:13.071Z,53.60
2023-03-10T12:24:01.293Z,51.90
2023-03-10T12:27:08.016Z,53.30
2023-03-10T12:29:54.370Z,54.90
2023-03-10T12:32:43.910Z,56.10
2023-03-10T12:35:47.497Z,56.80
2023-03-10T12:38:58.863Z,58.00
2023-03-10T12:41:50.227Z,57.50
2023-03-10T12:44:55.304Z,58.40
2023-03-10T12:47:50.184Z,58.20
2023-03-10T12:50:50.230Z,57.90
2023-03-10T12:53:58.352Z,58.60
2023-03-10T12:56:59.261Z,60.60
2023-03-10T13:00:08.246Z,60.80
2023-03-10T13:03:00.811Z,60.60
2023-03-10T13:06:03.932Z,60.80
2023-03-10T13:09:01.805Z,62.70
2023-03-10T13:12:03.043Z,60.60
2023-03-10T13:14:54.629Z,62.00
2023-03-10T13:17:40.603Z,61.80
2023-03-10T13:20:26.534Z,59.40
2023-03-10T13:23:27.872Z,58.20
2023-03-10T13:26:16.651Z,60.30
2023-03-10T13:29:03.560Z,62.50
2023-03-10T13:31:54.758Z,63.70
2023-03-10T13:34:40.733Z,65.50
2023-03-10T13:37:26.847Z,65.60
2023-03-10T13:40:17.200Z,66.90
2023-03-10T13:43:06.164Z,66.60
2023-03-10T13:46:00.368Z,66.70
2023-03-10T13:48:47.931Z,66.70
2023-03-10T13:51:36.901Z,67.10
2023-03-10T13:54:29.956Z,66.40
2023-03-10T13:57:22.693Z,67.60
2023-03-10T14:00:16.011Z,68.00
2023-03-10T14:03:02.579Z,68.30
2023-03-10T14:05:48.951Z,68.50
2023-03-10T14:08:35.060Z,68.80
2023-03-10T14:11:38.615Z,68.60
2023-03-10T14:14:35.878Z,69.50
2023-03-10T14:17:38.367Z,69.90
2023-03-10T14:20:33.130Z,70.50
2023-03-10T14:23:19.385Z,70.80
2023-03-10T14:26:13.892Z,70.40
2023-03-10T14:29:02.274Z,70.20
2023-03-10T14:31:52.319Z,70.40
2023-03-10T14:34:38.228Z,70.90
2023-03-10T14:37:24.122Z,70.20
2023-03-10T14:40:11.188Z,70.30
2023-03-10T14:43:01.357Z,70.30
2023-03-10T14:45:49.736Z,70.30
2023-03-10T14:48:39.909Z,70.00
2023-03-10T14:51:35.633Z,69.80
2023-03-10T14:54:24.874Z,70.20
2023-03-10T14:57:13.662Z,70.30
2023-03-10T14:59:59.800Z,70.60
2023-03-10T15:02:46.747Z,71.20
2023-03-10T15:05:47.504Z,71.80
2023-03-10T15:08:34.770Z,73.30
2023-03-10T15:11:35.758Z,75.00
2023-03-10T15:14:23.270Z,77.20
2023-03-10T15:17:12.450Z,78.50
2023-03-10T15:19:58.599Z,80.10
2023-03-10T15:22:48.348Z,80.10
2023-03-10T15:25:34.884Z,81.30
2023-03-10T15:28:22.419Z,79.10
2023-03-10T15:31:08.793Z,80.10
2023-03-10T15:33:54.802Z,80.40
2023-03-10T15:36:40.915Z,80.70
2023-03-10T15:39:31.912Z,81.60
2023-03-10T15:42:19.421Z,83.40
2023-03-10T15:45:07.791Z,83.90
2023-03-10T15:47:54.600Z,86.20
2023-03-10T15:50:47.010Z,88.40
2023-03-10T15:53:32.998Z,89.70
2023-03-10T15:56:21.636Z,90.60
2023-03-10T15:59:08.266Z,90.90
2023-03-10T16:01:54.639Z,92.40
2023-03-10T16:04:42.140Z,94.10
2023-03-10T16:07:28.320Z,95.70
2023-03-10T16:10:17.069Z,96.60
2023-03-10T16:13:03.270Z,96.90
2023-03-10T16:15:49.263Z,97.20
2023-03-10T16:18:36.150Z,97.80
2023-03-10T16:21:22.501Z,97.20
2023-03-10T16:24:09.087Z,97.30
2023-03-10T16:26:55.165Z,97.20
2023-03-10T16:29:41.105Z,97.10
2023-03-10T16:32:27.186Z,96.30
2023-03-10T16:35:13.950Z,95.60
2023-03-10T16:38:01.118Z,95.40
2023-03-10T16:40:50.628Z,95.10
2023-03-10T16:43:37.225Z,94.80
2023-03-10T16:46:25.666Z,94.50
2023-03-10T16:49:14.874Z,93.90
2023-03-10T16:52:02.947Z,93.80
2023-03-10T16:54:49.116Z,93.80
2023-03-10T16:57:35.144Z,93.10
2023-03-10T17:00:22.855Z,93.40
2023-03-10T17:03:08.853Z,93.40
2023-03-10T17:05:54.840Z,92.30
2023-03-10T17:08:41.294Z,93.00
2023-03-10T17:11:32.968Z,92.40
2023-03-10T17:14:20.547Z,92.20
2023-03-10T17:17:07.844Z,92.10
2023-03-10T17:19:54.385Z,91.60
2023-03-10T17:22:40.627Z,91.80
2023-03-10T17:25:26.423Z,91.40
2023-03-10T17:28:14.542Z,91.10
2023-03-10T17:31:07.313Z,91.30
2023-03-10T17:33:55.837Z,89.80
2023-03-10T17:36:42.512Z,90.20
2023-03-10T17:39:28.958Z,89.70
2023-03-10T17:42:15.037Z,89.00
2023-03-10T17:45:01.059Z,89.70
2023-03-10T17:47:47.511Z,89.00
2023-03-10T17:50:33.681Z,89.00
2023-03-10T17:53:20.056Z,89.60
2023-03-10T17:56:07.335Z,90.30
2023-03-10T17:58:54.660Z,89.90
2023-03-10T18:01:42.083Z,89.40
2023-03-10T18:04:30.218Z,88.60
2023-03-10T18:07:16.444Z,87.70
2023-03-10T18:10:03.906Z,86.00
2023-03-10T18:12:50.121Z,87.30
2023-03-10T18:15:36.128Z,86.50
2023-03-10T18:18:23.389Z,87.10
2023-03-10T18:21:10.019Z,87.70
2023-03-10T18:23:56.508Z,87.70
2023-03-10T18:26:45.738Z,87.70
2023-03-10T18:29:31.949Z,87.50
2023-03-10T18:32:18.685Z,88.00
2023-03-10T18:35:06.217Z,87.50
2023-03-10T18:37:52.375Z,88.20
2023-03-10T18:40:38.503Z,87.80
2023-03-10T18:43:26.378Z,88.40
2023-03-10T18:46:12.666Z,87.90
2023-03-10T18:48:58.496Z,88.90
2023-03-10T18:51:44.423Z,90.00
2023-03-10T18:54:30.511Z,91.20
2023-03-10T18:57:16.821Z,92.60
2023-03-10T19:00:14.183Z,95.10
2023-03-10T19:03:00.217Z,96.90
2023-03-10T19:05:51.572Z,97.30
2023-03-10T19:08:39.056Z,97.20
2023-03-10T19:11:25.058Z,97.00
2023-03-10T19:14:11.426Z,97.10
2023-03-10T19:16:57.459Z,97.10
2023-03-10T19:19:43.439Z,96.90
2023-03-10T19:22:30.309Z,96.50
2023-03-10T19:25:16.484Z,96.70
2023-03-10T19:28:03.034Z,96.30
2023-03-10T19:30:49.634Z,96.20
2023-03-10T19:33:35.403Z,95.70
2023-03-10T19:36:21.383Z,96.30
2023-03-10T19:39:07.303Z,96.40
2023-03-10T19:41:53.033Z,96.30
2023-03-10T19:44:39.615Z,96.50
2023-03-10T19:47:25.576Z,96.40
2023-03-10T19:50:14.495Z,96.30
2023-03-10T19:53:00.514Z,96.20
2023-03-10T19:55:46.452Z,96.30
2023-03-10T19:58:32.798Z,95.90
2023-03-10T20:01:24.908Z,95.30
2023-03-10T20:04:11.304Z,94.70
2023-03-10T20:06:57.387Z,94.30
2023-03-10T20:09:43.302Z,94.00
2023-03-10T20:12:29.202Z,93.60
2023-03-10T20:15:15.008Z,93.10
2023-03-10T20:18:01.110Z,92.90
2023-03-10T20:20:48.043Z,92.20
2023-03-10T20:23:34.642Z,92.20
2023-03-10T20:26:20.845Z,91.50
2023-03-10T20:29:07.107Z,91.70
2023-03-10T20:31:53.101Z,91.20
2023-03-10T20:34:41.242Z,91.60
2023-03-10T20:37:27.528Z,91.00
2023-03-10T20:40:19.235Z,91.10
2023-03-10T20:43:06.190Z,91.40
2023-03-10T20:45:52.701Z,90.80
2023-03-10T20:48:39.348Z,90.60
2023-03-10T20:51:25.599Z,90.70
2023-03-10T20:54:11.739Z,91.10
2023-03-10T20:56:57.830Z,91.20
2023-03-10T20:59:43.991Z,91.20
2023-03-10T21:02:30.466Z,91.90
2023-03-10T21:05:16.825Z,92.40
2023-03-10T21:08:02.686Z,93.20
2023-03-10T21:10:49.487Z,94.30
2023-03-10T21:13:35.683Z,95.20
2023-03-10T21:16:21.700Z,96.60
2023-03-10T21:19:07.743Z,97.00
2023-03-10T21:21:53.829Z,97.70
2023-03-10T21:24:40.528Z,97.70
2023-03-10T21:27:28.305Z,97.80
2023-03-10T21:30:15.417Z,97.30
2023-03-10T21:33:01.608Z,97.50
2023-03-10T21:35:47.519Z,97.60
2023-03-10T21:38:36.448Z,96.90
2023-03-10T21:41:25.564Z,97.20
2023-03-10T21:44:12.095Z,97.20
2023-03-10T21:46:58.329Z,97.70
2023-03-10T21:49:44.271Z,97.60
2023-03-10T21:52:30.137Z,96.20
2023-03-10T21:55:20.089Z,93.70
2023-03-10T21:58:06.245Z,93.80
2023-03-10T22:00:55.717Z,92.80
2023-03-10T22:03:43.044Z,93.20
2023-03-10T22:06:29.904Z,93.00
2023-03-10T22:09:15.917Z,93.20
2023-03-10T22:12:02.130Z,93.60
2023-03-10T22:14:50.305Z,94.30
2023-03-10T22:17:36.140Z,94.70
2023-03-10T22:20:25.258Z,94.70
2023-03-10T22:23:11.531Z,94.20
2023-03-10T22:25:57.723Z,93.60
2023-03-10T22:28:43.575Z,94.10
2023-03-10T22:31:29.739Z,94.10
2023-03-10T22:34:16.380Z,94.10
2023-03-10T22:37:02.608Z,95.50
2023-03-10T22:39:48.546Z,95.20
2023-03-10T22:42:38.309Z,94.80
2023-03-10T22:45:27.082Z,95.00
2023-03-10T22:48:13.248Z,95.20
2023-03-10T22:50:59.191Z,94.20
2023-03-10T22:53:48.701Z,93.30
2023-03-10T22:56:34.908Z,92.40
2023-03-10T22:59:20.959Z,92.50
2023-03-10T23:02:07.029Z,91.50
2023-03-10T23:04:53.142Z,91.40
2023-03-10T23:07:39.142Z,90.80
2023-03-10T23:10:28.248Z,90.50
2023-03-10T23:13:16.358Z,90.00
2023-03-10T23:16:03.916Z,89.10
2023-03-10T23:18:49.872Z,89.90
2023-03-10T23:21:36.379Z,90.30
2023-03-10T23:24:22.640Z,88.50
2023-03-10T23:27:08.569Z,88.50
2023-03-10T23:29:54.516Z,89.20
2023-03-10T23:32:42.487Z,87.90
2023-03-10T23:35:31.196Z,86.80
2023-03-10T23:38:17.331Z,87.60
2023-03-10T23:41:03.792Z,85.60
2023-03-10T23:43:52.019Z,86.00
2023-03-10T23:46:38.304Z,85.80
2023-03-10T23:49:24.573Z,84.10
2023-03-10T23:52:10.589Z,83.80
2023-03-10T23:54:56.638Z,83.00
2023-03-10T23:57:42.806Z,83.30
